Terminal Aerodrome Forecast
Issued by NWS

Home | Current Version | Previous Version | Text Only | Print | Product List | Glossary On
Versions: 1 2 3 4 5 6 7 8 9 10 11 12 13
043
FTUS45 KABQ 302337
TAFTCC
TAF
KTCC 302337Z 3100/3124 21015G25KT P6SM FEW100
     FM310200 34012G22KT P6SM VCTS BKN080CB
     FM310400 21009KT P6SM SCT100 BKN150
     FM311600 20014G24KT P6SM FEW150
     FM312000 20015G25KT P6SM SCT090=

USA.gov is the U.S. government's official web portal to all federal, state and local government web resources and services.